Time;durP1;ratioP1;P1;durP2;ratioP2;P2;SDS_P1;SDS_P2;PMS_P1;PMS_P2;Temp;Humidity;BMP_temperature;BMP_pressure;BME280_temperature;BME280_humidity;BME280_pressure;Samples;Min_cycle;Max_cycle;Signal;HPM_P1;HPM_P2
2020/12/06 00:00:09;;;;;;;;;;;;;;;22.39;26.36;98459.56;5080642;28;1942;-76
2020/12/06 00:02:35;;;;;;;;;;;;;;;21.73;27.54;98472.66;5081099;28;636;-76
2020/12/06 00:05:00;;;;;;;;;;;;;;;21.54;27.74;98469.34;5080380;28;678;-76
2020/12/06 00:07:26;;;;;;;;;;;;;;;21.50;27.83;98473.47;5080170;28;888;-75
2020/12/06 00:09:51;;;;;;;;;;;;;;;21.50;27.93;98476.31;5080303;28;860;-76
2020/12/06 00:12:17;;;;;;;;;;;;;;;21.25;28.47;98473.94;5080328;28;866;-75
2020/12/06 00:14:42;;;;;;;;;;;;;;;21.34;28.13;98482.66;5080373;28;702;-75
2020/12/06 00:17:08;;;;;;;;;;;;;;;21.98;27.38;98463.66;5080507;28;601;-75
2020/12/06 00:19:33;;;;;;;;;;;;;;;22.12;27.13;98474.69;5080173;28;602;-75
2020/12/06 00:21:59;;;;;;;;;;;;;;;22.45;26.63;98474.81;5080180;28;1929;-75
2020/12/06 00:24:24;;;;;;;;;;;;;;;22.62;26.04;98479.28;5079945;28;805;-76
2020/12/06 00:26:50;;;;;;;;;;;;;;;22.61;26.36;98475.66;5080571;28;1065;-76
2020/12/06 00:29:15;;;;;;;;;;;;;;;22.08;26.91;98474.75;5080030;28;602;-75
2020/12/06 00:31:41;;;;;;;;;;;;;;;21.74;27.52;98480.72;5080370;28;709;-76
2020/12/06 00:34:06;;;;;;;;;;;;;;;21.38;28.06;98476.94;5080070;28;638;-76
2020/12/06 00:36:32;;;;;;;;;;;;;;;21.49;28.38;98478.34;5080119;28;969;-76
2020/12/06 00:38:57;;;;;;;;;;;;;;;22.06;27.15;98470.75;5079727;28;930;-75
2020/12/06 00:41:23;;;;;;;;;;;;;;;22.53;26.66;98470.56;5080047;28;1971;-75
2020/12/06 00:43:49;;;;;;;;;;;;;;;22.21;26.71;98468.44;5080271;28;631;-76
2020/12/06 00:46:21;;;;;;;;;;;;;;;21.77;27.57;98465.69;5080379;28;685;-76
2020/12/06 00:48:47;;;;;;;;;;;;;;;21.52;28.23;98471.84;5062205;28;1370;-76
2020/12/06 00:51:13;;;;;;;;;;;;;;;21.52;28.16;98473.88;5080004;28;948;-75
2020/12/06 00:53:42;;;;;;;;;;;;;;;22.07;27.47;98466.69;5061646;28;1142;-75
2020/12/06 00:56:16;;;;;;;;;;;;;;;22.31;27.01;98465.38;5063072;28;1375;-75
2020/12/06 00:58:42;;;;;;;;;;;;;;;22.61;26.34;98463.50;5062425;28;921;-76
2020/12/06 01:01:07;;;;;;;;;;;;;;;22.71;26.19;98465.28;5080060;28;1984;-75
2020/12/06 01:03:33;;;;;;;;;;;;;;;22.03;27.13;98466.78;5079757;28;697;-76
2020/12/06 01:05:58;;;;;;;;;;;;;;;21.44;28.16;98464.69;5080052;28;934;-76
2020/12/06 01:08:24;;;;;;;;;;;;;;;21.54;28.16;98468.56;5079499;28;884;-76
2020/12/06 01:10:49;;;;;;;;;;;;;;;21.37;28.48;98464.03;5080230;28;845;-76
2020/12/06 01:13:15;;;;;;;;;;;;;;;21.89;27.76;98460.59;5079629;28;646;-76
2020/12/06 01:15:40;;;;;;;;;;;;;;;22.46;26.92;98459.41;5080204;28;582;-75
2020/12/06 01:18:06;;;;;;;;;;;;;;;22.73;26.50;98451.44;5080000;28;673;-75
2020/12/06 01:20:31;;;;;;;;;;;;;;;22.70;26.37;98455.19;5082897;28;1902;-75
2020/12/06 01:22:57;;;;;;;;;;;;;;;22.31;26.88;98462.53;5082921;28;897;-75
2020/12/06 01:25:23;;;;;;;;;;;;;;;21.77;27.79;98460.03;5083701;28;887;-76
2020/12/06 01:27:48;;;;;;;;;;;;;;;21.60;27.89;98461.16;5099169;28;690;-75
2020/12/06 01:30:14;;;;;;;;;;;;;;;21.47;28.32;98457.38;5083246;28;622;-76
2020/12/06 01:32:39;;;;;;;;;;;;;;;21.47;28.55;98457.38;5083284;28;581;-75
2020/12/06 01:35:05;;;;;;;;;;;;;;;22.18;27.12;98444.63;5082700;28;964;-76
2020/12/06 01:37:30;;;;;;;;;;;;;;;22.42;27.09;98447.31;5082810;28;932;-75
2020/12/06 01:39:56;;;;;;;;;;;;;;;22.57;26.51;98445.75;5065724;28;855;-75
2020/12/06 01:42:21;;;;;;;;;;;;;;;22.54;26.57;98443.81;5082964;28;1968;-76
2020/12/06 01:44:47;;;;;;;;;;;;;;;22.03;27.41;98448.97;5082727;28;644;-76
2020/12/06 01:47:13;;;;;;;;;;;;;;;21.82;27.96;98438.88;5082657;28;1140;-75
2020/12/06 01:49:38;;;;;;;;;;;;;;;21.62;27.98;98446.59;5082592;28;952;-76
2020/12/06 01:52:04;;;;;;;;;;;;;;;21.93;27.84;98445.13;5065609;28;947;-76
2020/12/06 01:54:30;;;;;;;;;;;;;;;22.41;27.11;98440.06;5083227;28;720;-76
2020/12/06 01:56:55;;;;;;;;;;;;;;;22.54;26.73;98430.44;5065865;28;1005;-75
2020/12/06 01:59:20;;;;;;;;;;;;;;;22.79;26.41;98438.31;5083241;28;753;-76
2020/12/06 02:01:59;;;;;;;;;;;;;;;21.96;27.44;98432.09;5082945;28;1906;-76
2020/12/06 02:04:25;;;;;;;;;;;;;;;21.59;28.10;98443.38;5082304;28;833;-76
2020/12/06 02:06:51;;;;;;;;;;;;;;;21.36;28.39;98439.81;5082467;28;816;-76
2020/12/06 02:09:16;;;;;;;;;;;;;;;22.06;27.57;98433.91;5082381;28;662;-75
2020/12/06 02:11:41;;;;;;;;;;;;;;;22.47;26.87;98429.78;5082673;28;677;-76
2020/12/06 02:14:09;;;;;;;;;;;;;;;22.55;26.96;98439.75;5082606;28;681;-75
2020/12/06 02:16:34;;;;;;;;;;;;;;;22.59;26.52;98437.63;5082359;28;721;-76
2020/12/06 02:19:00;;;;;;;;;;;;;;;22.14;27.24;98438.22;5081923;28;1082;-76
2020/12/06 02:21:25;;;;;;;;;;;;;;;22.09;27.25;98436.69;5082180;28;1871;-76
2020/12/06 02:23:51;;;;;;;;;;;;;;;21.68;27.67;98434.31;5082132;28;814;-76
2020/12/06 02:26:16;;;;;;;;;;;;;;;21.55;28.26;98453.16;5082558;28;686;-76
2020/12/06 02:28:42;;;;;;;;;;;;;;;22.16;27.36;98437.78;5082167;28;911;-76
2020/12/06 02:31:10;;;;;;;;;;;;;;;22.49;26.87;98435.84;5065038;28;829;-75
2020/12/06 02:33:36;;;;;;;;;;;;;;;22.75;26.51;98431.16;5081369;28;1160;-75
2020/12/06 02:36:02;;;;;;;;;;;;;;;22.66;26.65;98428.16;5081635;28;897;-75
2020/12/06 02:38:27;;;;;;;;;;;;;;;21.82;27.75;98427.56;5081439;28;947;-75
2020/12/06 02:40:53;;;;;;;;;;;;;;;21.51;28.12;98426.97;5081811;28;1902;-76
2020/12/06 02:43:18;;;;;;;;;;;;;;;21.28;28.65;98422.91;5081463;28;673;-75
2020/12/06 02:45:43;;;;;;;;;;;;;;;21.94;27.74;98417.59;5081667;28;660;-75
2020/12/06 02:48:09;;;;;;;;;;;;;;;22.01;27.65;98417.44;5081158;28;999;-75
2020/12/06 02:50:34;;;;;;;;;;;;;;;22.28;27.09;98426.59;5081334;28;960;-76
2020/12/06 02:53:00;;;;;;;;;;;;;;;22.40;27.12;98427.13;5081457;28;952;-75
2020/12/06 02:55:26;;;;;;;;;;;;;;;22.53;26.84;98425.19;5081993;28;745;-76
2020/12/06 02:57:51;;;;;;;;;;;;;;;21.84;27.79;98420.22;5064919;28;656;-76
2020/12/06 03:00:17;;;;;;;;;;;;;;;21.51;28.19;98418.47;5081407;28;1890;-75
2020/12/06 03:02:42;;;;;;;;;;;;;;;21.44;28.50;98425.06;5081302;28;852;-76
2020/12/06 03:05:08;;;;;;;;;;;;;;;21.45;28.79;98420.19;5081161;28;868;-76
2020/12/06 03:07:33;;;;;;;;;;;;;;;22.02;27.61;98413.34;5081403;28;857;-75
2020/12/06 03:10:07;;;;;;;;;;;;;;;22.34;27.20;98416.31;5081212;28;624;-75
2020/12/06 03:12:33;;;;;;;;;;;;;;;22.66;26.83;98417.59;5081290;28;697;-76
2020/12/06 03:14:59;;;;;;;;;;;;;;;22.67;26.65;98427.69;5063877;28;609;-76
2020/12/06 03:17:24;;;;;;;;;;;;;;;21.84;27.64;98420.22;5081454;28;852;-75
2020/12/06 03:19:50;;;;;;;;;;;;;;;21.75;27.74;98425.66;5080838;28;877;-76
2020/12/06 03:22:15;;;;;;;;;;;;;;;21.19;29.00;98431.19;5081588;28;1902;-76
2020/12/06 03:24:41;;;;;;;;;;;;;;;21.46;28.71;98433.13;5081095;28;629;-75
2020/12/06 03:27:06;;;;;;;;;;;;;;;22.02;28.04;98413.34;5081590;28;614;-75
2020/12/06 03:29:32;;;;;;;;;;;;;;;22.50;27.27;98426.09;5081250;28;657;-76
2020/12/06 03:31:57;;;;;;;;;;;;;;;22.66;27.08;98417.59;5080887;28;932;-76
2020/12/06 03:34:23;;;;;;;;;;;;;;;22.28;27.20;98415.25;5080349;28;880;-75
2020/12/06 03:36:48;;;;;;;;;;;;;;;21.44;28.25;98418.59;5080788;28;837;-75
2020/12/06 03:39:15;;;;;;;;;;;;;;;21.51;28.26;98407.16;5080627;28;715;-75
2020/12/06 03:41:44;;;;;;;;;;;;;;;21.92;28.16;98409.53;5080361;28;1898;-76
2020/12/06 03:44:09;;;;;;;;;;;;;;;22.33;27.52;98422.44;5080846;28;617;-75
2020/12/06 03:46:34;;;;;;;;;;;;;;;22.56;27.00;98416.59;5080728;28;1043;-76
2020/12/06 03:49:00;;;;;;;;;;;;;;;22.79;26.74;98418.47;5080305;28;1018;-77
2020/12/06 03:51:25;;;;;;;;;;;;;;;22.84;26.88;98412.25;5080775;28;927;-75
2020/12/06 03:53:51;;;;;;;;;;;;;;;21.97;27.71;98405.41;5080489;28;661;-76
2020/12/06 03:56:16;;;;;;;;;;;;;;;21.68;28.02;98414.47;5081086;28;598;-76
2020/12/06 03:58:42;;;;;;;;;;;;;;;21.56;28.38;98415.94;5080695;28;650;-76
2020/12/06 04:01:07;;;;;;;;;;;;;;;21.49;28.64;98426.59;5063330;28;1981;-76
2020/12/06 04:03:33;;;;;;;;;;;;;;;21.44;28.83;98432.75;5079920;28;822;-75
2020/12/06 04:05:58;;;;;;;;;;;;;;;21.40;29.07;98427.19;5080994;28;842;-76
2020/12/06 04:08:24;;;;;;;;;;;;;;;21.52;29.28;98417.25;5080395;28;606;-76
2020/12/06 04:10:49;;;;;;;;;;;;;;;22.06;28.34;98414.09;5080913;28;694;-77
2020/12/06 04:13:15;;;;;;;;;;;;;;;22.43;27.47;98420.56;5080254;28;658;-75
2020/12/06 04:15:40;;;;;;;;;;;;;;;22.51;27.21;98422.00;5080306;28;936;-76
2020/12/06 04:18:05;;;;;;;;;;;;;;;22.54;27.24;98421.13;5080172;28;861;-77
2020/12/06 04:20:31;;;;;;;;;;;;;;;21.87;28.20;98429.88;5080673;28;1973;-77
2020/12/06 04:22:56;;;;;;;;;;;;;;;21.43;28.86;98434.78;5080547;28;650;-76
2020/12/06 04:25:22;;;;;;;;;;;;;;;21.35;28.96;98441.00;5080604;28;721;-76
2020/12/06 04:27:47;;;;;;;;;;;;;;;21.40;29.12;98434.84;5080449;28;717;-76
2020/12/06 04:30:13;;;;;;;;;;;;;;;21.29;29.31;98440.69;5080040;28;944;-76
2020/12/06 04:32:38;;;;;;;;;;;;;;;21.79;28.52;98432.06;5080166;28;885;-75
2020/12/06 04:35:04;;;;;;;;;;;;;;;22.24;28.00;98425.88;5080276;28;876;-76
2020/12/06 04:37:29;;;;;;;;;;;;;;;22.42;27.38;98424.66;5080525;28;649;-76
2020/12/06 04:39:55;;;;;;;;;;;;;;;22.50;27.05;98424.06;5080218;28;633;-76
2020/12/06 04:42:20;;;;;;;;;;;;;;;21.98;27.78;98426.81;5080268;28;1906;-76
2020/12/06 04:44:46;;;;;;;;;;;;;;;21.65;28.15;98426.66;5079572;28;1076;-76
2020/12/06 04:47:13;;;;;;;;;;;;;;;21.26;28.75;98442.34;5080017;28;929;-76
2020/12/06 04:49:42;;;;;;;;;;;;;;;21.46;28.51;98435.97;5079652;28;898;-76
2020/12/06 04:52:13;;;;;;;;;;;;;;;21.71;28.84;98426.97;5063144;28;641;-75
2020/12/06 04:54:38;;;;;;;;;;;;;;;22.22;27.82;98428.31;5065148;28;980;-76
2020/12/06 04:57:04;;;;;;;;;;;;;;;22.33;27.51;98431.75;5066589;28;954;-76
2020/12/06 04:59:30;;;;;;;;;;;;;;;22.71;26.86;98434.09;5083415;28;902;-75
2020/12/06 05:01:56;;;;;;;;;;;;;;;22.62;26.96;98423.34;5084011;28;1986;-75
2020/12/06 05:04:21;;;;;;;;;;;;;;;21.77;28.19;98437.38;5083476;28;657;-76
2020/12/06 05:06:47;;;;;;;;;;;;;;;21.41;28.43;98437.25;5066756;28;669;-76
2020/12/06 05:09:13;;;;;;;;;;;;;;;21.51;28.51;98441.13;5083244;28;920;-75
2020/12/06 05:11:39;;;;;;;;;;;;;;;21.53;28.60;98441.47;5083714;28;882;-76
2020/12/06 05:14:07;;;;;;;;;;;;;;;21.83;28.24;98434.81;5066380;28;938;-76
2020/12/06 05:16:33;;;;;;;;;;;;;;;22.26;27.40;98434.72;5084409;28;683;-76
2020/12/06 05:18:59;;;;;;;;;;;;;;;22.59;26.95;98440.47;5066198;28;1508;-75
2020/12/06 05:21:34;;;;;;;;;;;;;;;22.47;26.72;98435.47;5061424;28;1972;-76
2020/12/06 05:24:00;;;;;;;;;;;;;;;21.27;28.72;98455.28;5043170;28;901;-76
2020/12/06 05:26:27;;;;;;;;;;;;;;;21.54;28.38;98451.56;5043464;28;901;-75
2020/12/06 05:28:52;;;;;;;;;;;;;;;21.73;28.55;98447.97;5043417;28;733;-76
2020/12/06 05:31:18;;;;;;;;;;;;;;;22.15;27.80;98450.38;5043903;28;626;-76
2020/12/06 05:33:43;;;;;;;;;;;;;;;22.55;27.15;98451.09;5043127;28;681;-76
2020/12/06 05:36:09;;;;;;;;;;;;;;;22.65;27.07;98438.69;5043848;28;1576;-75
2020/12/06 05:38:34;;;;;;;;;;;;;;;21.94;27.72;98443.09;5061807;28;1516;-76
2020/12/06 05:41:00;;;;;;;;;;;;;;;21.48;28.71;98447.66;5062900;28;1963;-75
2020/12/06 05:43:26;;;;;;;;;;;;;;;21.61;28.16;98451.44;5078669;28;1479;-76
2020/12/06 05:46:00;;;;;;;;;;;;;;;21.45;29.03;98451.34;5079189;28;614;-76
2020/12/06 05:48:26;;;;;;;;;;;;;;;21.85;28.52;98441.63;5074734;28;1139;-76
2020/12/06 05:50:51;;;;;;;;;;;;;;;22.33;27.71;98460.09;5083290;28;798;-76
2020/12/06 05:53:16;;;;;;;;;;;;;;;22.52;27.24;98446.28;5082151;28;974;-76
2020/12/06 05:55:42;;;;;;;;;;;;;;;22.55;27.45;98454.72;5098954;28;888;-76
2020/12/06 05:58:07;;;;;;;;;;;;;;;21.88;28.17;98444.84;5082652;28;868;-76
2020/12/06 06:00:33;;;;;;;;;;;;;;;21.72;28.46;98454.06;5099176;28;1898;-76
2020/12/06 06:02:58;;;;;;;;;;;;;;;21.47;28.69;98461.00;5082485;28;1626;-75
2020/12/06 06:05:24;;;;;;;;;;;;;;;21.48;29.33;98459.75;5098018;28;1585;-75
2020/12/06 06:07:49;;;;;;;;;;;;;;;22.08;28.32;98454.94;5098683;28;1098;-75
2020/12/06 06:10:16;;;;;;;;;;;;;;;22.51;27.54;98461.72;5082438;28;892;-76
2020/12/06 06:12:42;;;;;;;;;;;;;;;22.51;27.33;98461.72;5082644;28;846;-75
2020/12/06 06:15:07;;;;;;;;;;;;;;;21.76;28.57;98472.59;5082242;28;759;-75
2020/12/06 06:17:33;;;;;;;;;;;;;;;21.65;28.36;98477.66;5082873;28;682;-76
2020/12/06 06:19:58;;;;;;;;;;;;;;;21.45;29.03;98476.81;5082185;28;638;-75
2020/12/06 06:22:32;;;;;;;;;;;;;;;21.98;28.51;98475.00;5082223;28;1971;-76
2020/12/06 06:24:58;;;;;;;;;;;;;;;22.42;27.71;98473.66;5098049;28;845;-75
2020/12/06 06:27:24;;;;;;;;;;;;;;;22.57;27.33;98476.97;5082398;28;986;-76
2020/12/06 06:29:50;;;;;;;;;;;;;;;22.67;27.20;98475.91;5082277;28;696;-75
2020/12/06 06:32:17;;;;;;;;;;;;;;;21.89;28.19;98477.59;5096677;28;1865;-76
2020/12/06 06:34:42;;;;;;;;;;;;;;;21.79;28.19;98480.19;5096418;28;1566;-76
2020/12/06 06:37:11;;;;;;;;;;;;;;;20.88;29.56;98478.59;5081861;28;1520;-76
2020/12/06 06:39:37;;;;;;;;;;;;;;;21.37;29.44;98483.84;5081671;28;825;-76
2020/12/06 06:42:15;;;;;;;;;;;;;;;22.02;28.55;98470.84;5098037;28;1898;-76
2020/12/06 06:44:41;;;;;;;;;;;;;;;22.36;28.09;98467.69;5096540;28;655;-75
2020/12/06 06:47:08;;;;;;;;;;;;;;;22.58;27.61;98472.88;5081609;28;1559;-76
2020/12/06 06:49:52;;;;;;;;;;;;;;;22.73;27.17;98471.31;5081781;28;640;-76
2020/12/06 06:52:20;;;;;;;;;;;;;;;22.12;27.86;98471.88;5059972;28;1464;-76
2020/12/06 06:54:46;;;;;;;;;;;;;;;21.54;28.65;98472.19;5060887;28;1717;-76
2020/12/06 06:57:11;;;;;;;;;;;;;;;21.63;28.86;98468.78;5060933;28;1559;-75
2020/12/06 06:59:37;;;;;;;;;;;;;;;21.63;29.12;98468.78;5044253;28;630;-76
2020/12/06 07:02:03;;;;;;;;;;;;;;;22.11;28.35;98461.78;5061819;28;1972;-76
2020/12/06 07:04:29;;;;;;;;;;;;;;;22.36;27.97;98467.69;5044076;28;606;-76
2020/12/06 07:06:54;;;;;;;;;;;;;;;22.45;27.84;98457.81;5061297;28;1563;-75
2020/12/06 07:09:27;;;;;;;;;;;;;;;22.27;28.03;98464.66;5059905;28;1801;-76
2020/12/06 07:11:52;;;;;;;;;;;;;;;21.88;28.34;98468.31;5061680;28;814;-76
2020/12/06 07:14:19;;;;;;;;;;;;;;;21.39;29.15;98470.06;5051345;28;1655;-75
2020/12/06 07:16:44;;;;;;;;;;;;;;;21.63;29.31;98465.97;5040733;28;690;-75
2020/12/06 07:19:10;;;;;;;;;;;;;;;22.23;28.34;98468.84;5041216;28;599;-76
2020/12/06 07:21:35;;;;;;;;;;;;;;;22.33;27.73;98468.59;5040711;28;1898;-75
2020/12/06 07:24:01;;;;;;;;;;;;;;;22.45;27.74;98471.97;5040819;28;978;-76
2020/12/06 07:26:27;;;;;;;;;;;;;;;22.26;27.74;98468.72;5057876;28;1148;-76
2020/12/06 07:28:53;;;;;;;;;;;;;;;21.66;28.72;98475.59;5043064;28;1386;-76
2020/12/06 07:31:18;;;;;;;;;;;;;;;21.70;28.44;98477.13;5061118;28;634;-75
2020/12/06 07:33:44;;;;;;;;;;;;;;;21.68;28.37;98473.16;5060763;28;694;-75
2020/12/06 07:36:09;;;;;;;;;;;;;;;21.78;29.08;98472.16;5060852;28;891;-76
2020/12/06 07:38:35;;;;;;;;;;;;;;;22.23;28.10;98474.50;5061347;28;1417;-76
2020/12/06 07:41:03;;;;;;;;;;;;;;;22.58;27.64;98467.22;5043937;28;1894;-76
2020/12/06 07:43:29;;;;;;;;;;;;;;;22.41;27.68;98479.75;5060439;28;669;-75
2020/12/06 07:45:55;;;;;;;;;;;;;;;22.47;27.60;98484.47;5044002;28;1002;-76
2020/12/06 07:48:21;;;;;;;;;;;;;;;21.91;28.36;98480.78;5053972;28;1192;-76
2020/12/06 07:50:46;;;;;;;;;;;;;;;21.64;28.72;98487.38;5080700;28;943;-76
2020/12/06 07:53:11;;;;;;;;;;;;;;;21.61;28.66;98482.59;5079885;28;1473;-75
2020/12/06 07:55:37;;;;;;;;;;;;;;;21.57;29.05;98484.69;5079861;28;1618;-76
2020/12/06 07:58:13;;;;;;;;;;;;;;;21.91;28.79;98486.44;5080518;28;666;-76
2020/12/06 08:00:38;;;;;;;;;;;;;;;22.31;28.17;98492.94;5080081;28;1955;-76
2020/12/06 08:03:05;;;;;;;;;;;;;;;22.45;27.75;98497.50;5080469;28;714;-75
2020/12/06 08:05:31;;;;;;;;;;;;;;;22.53;27.65;98493.25;5062754;28;809;-76
2020/12/06 08:07:58;;;;;;;;;;;;;;;22.58;27.32;98487.06;5080264;28;902;-76
2020/12/06 08:10:24;;;;;;;;;;;;;;;22.06;28.01;98487.75;5063212;28;814;-76
2020/12/06 08:12:49;;;;;;;;;;;;;;;21.74;28.51;98492.03;5080430;28;690;-76
2020/12/06 08:15:15;;;;;;;;;;;;;;;21.50;28.81;98490.47;5063173;28;664;-76
2020/12/06 08:17:43;;;;;;;;;;;;;;;21.46;29.14;98495.41;5080433;28;1519;-76
2020/12/06 08:20:09;;;;;;;;;;;;;;;21.35;29.28;98495.63;5080018;28;857;-76
2020/12/06 08:22:44;;;;;;;;;;;;;;;21.67;28.85;98495.03;5079839;28;1910;-76
2020/12/06 08:25:09;;;;;;;;;;;;;;;22.21;27.87;98483.41;5079795;28;955;-76
2020/12/06 08:27:35;;;;;;;;;;;;;;;22.59;27.52;98485.84;5081687;28;657;-76
2020/12/06 08:30:03;;;;;;;;;;;;;;;22.67;27.29;98487.25;5082288;28;1552;-76
2020/12/06 08:32:28;;;;;;;;;;;;;;;21.87;28.46;98488.59;5067191;28;778;-75
2020/12/06 08:34:54;;;;;;;;;;;;;;;21.44;28.96;98481.69;5084164;28;905;-75
2020/12/06 08:37:20;;;;;;;;;;;;;;;20.87;30.08;98485.47;5084937;28;900;-75
2020/12/06 08:39:45;;;;;;;;;;;;;;;22.11;28.46;98473.09;5084097;28;968;-75
2020/12/06 08:42:11;;;;;;;;;;;;;;;22.58;27.30;98472.88;5095455;28;1975;-76
2020/12/06 08:44:48;;;;;;;;;;;;;;;22.48;27.56;98469.03;5084064;28;1622;-76
2020/12/06 08:47:14;;;;;;;;;;;;;;;22.39;27.28;98468.88;5084037;28;1637;-75
2020/12/06 08:49:39;;;;;;;;;;;;;;;21.51;28.74;98472.28;5083699;28;843;-76
2020/12/06 08:52:05;;;;;;;;;;;;;;;21.66;28.48;98467.94;5065484;28;837;-76
2020/12/06 08:54:34;;;;;;;;;;;;;;;21.85;28.62;98461.47;5083882;28;693;-76
2020/12/06 08:57:06;;;;;;;;;;;;;;;22.17;28.09;98462.84;5066356;28;1088;-75
2020/12/06 08:59:33;;;;;;;;;;;;;;;22.59;27.23;98463.16;5066651;28;1599;-76
2020/12/06 09:01:58;;;;;;;;;;;;;;;22.49;27.51;98455.69;5066595;28;1960;-75
2020/12/06 09:04:24;;;;;;;;;;;;;;;22.61;27.31;98449.31;5083183;28;1678;-75
2020/12/06 09:06:50;;;;;;;;;;;;;;;22.01;28.10;98457.09;5083554;28;1505;-76
2020/12/06 09:09:16;;;;;;;;;;;;;;;21.79;28.36;98451.88;5083498;28;843;-75
2020/12/06 09:11:41;;;;;;;;;;;;;;;21.43;28.80;98450.97;5083505;28;1528;-76
2020/12/06 09:14:07;;;;;;;;;;;;;;;21.46;29.00;98438.81;5082620;28;1725;-74
2020/12/06 09:16:32;;;;;;;;;;;;;;;21.49;29.31;98443.56;5084124;28;665;-76
2020/12/06 09:18:58;;;;;;;;;;;;;;;21.25;29.56;98440.75;5083065;28;856;-76
2020/12/06 09:21:23;;;;;;;;;;;;;;;21.56;29.16;98438.59;5083250;28;1968;-76
2020/12/06 09:23:49;;;;;;;;;;;;;;;22.16;28.17;98430.09;5083300;28;826;-76
2020/12/06 09:26:14;;;;;;;;;;;;;;;22.49;27.88;98424.50;5083681;28;665;-76
2020/12/06 09:28:40;;;;;;;;;;;;;;;22.55;27.65;98422.72;5083264;28;597;-76
2020/12/06 09:31:05;;;;;;;;;;;;;;;22.34;27.67;98424.81;5066377;28;786;-76
2020/12/06 09:33:31;;;;;;;;;;;;;;;21.83;28.42;98412.94;5082986;28;904;-76
2020/12/06 09:35:56;;;;;;;;;;;;;;;21.14;29.44;98411.88;5083577;28;895;-76
2020/12/06 09:38:21;;;;;;;;;;;;;;;21.54;28.97;98423.25;5082844;28;845;-76
2020/12/06 09:40:47;;;;;;;;;;;;;;;21.76;28.81;98415.94;5064816;28;1906;-77
2020/12/06 09:43:12;;;;;;;;;;;;;;;22.15;28.18;98416.34;5082725;28;1555;-76
2020/12/06 09:45:40;;;;;;;;;;;;;;;22.40;27.68;98410.91;5082870;28;1496;-77
2020/12/06 09:48:05;;;;;;;;;;;;;;;22.53;27.38;98405.34;5082484;28;996;-76
2020/12/06 09:50:31;;;;;;;;;;;;;;;21.68;28.68;98394.66;5082948;28;939;-76
2020/12/06 09:52:56;;;;;;;;;;;;;;;21.72;28.66;98395.38;5082794;28;834;-76
2020/12/06 09:55:22;;;;;;;;;;;;;;;21.36;29.97;98406.63;5083071;28;653;-76
2020/12/06 09:57:47;;;;;;;;;;;;;;;22.26;28.02;98389.34;5082833;28;708;-76
2020/12/06 10:00:13;;;;;;;;;;;;;;;22.58;27.54;98397.09;5082820;28;689;-75
2020/12/06 10:02:38;;;;;;;;;;;;;;;22.60;27.49;98397.47;5082183;28;1913;-75
2020/12/06 10:05:04;;;;;;;;;;;;;;;22.01;27.94;98394.75;5082080;28;1587;-76
2020/12/06 10:07:29;;;;;;;;;;;;;;;21.41;28.82;98402.50;5065300;28;834;-76
2020/12/06 10:09:55;;;;;;;;;;;;;;;21.54;28.81;98395.72;5082596;28;658;-76
2020/12/06 10:12:20;;;;;;;;;;;;;;;21.46;29.34;98390.66;5082938;28;666;-75
2020/12/06 10:14:46;;;;;;;;;;;;;;;21.91;28.61;98392.97;5082582;28;662;-76
2020/12/06 10:17:11;;;;;;;;;;;;;;;22.29;27.98;98382.81;5082379;28;1002;-75
2020/12/06 10:19:37;;;;;;;;;;;;;;;22.56;27.62;98395.97;5082054;28;896;-75
2020/12/06 10:22:02;;;;;;;;;;;;;;;22.57;27.74;98380.53;5082570;28;1910;-76
2020/12/06 10:24:28;;;;;;;;;;;;;;;22.16;28.14;98381.91;5082392;28;714;-75
2020/12/06 10:26:53;;;;;;;;;;;;;;;21.72;28.82;98384.06;5082523;28;654;-76
2020/12/06 10:29:19;;;;;;;;;;;;;;;21.30;29.42;98386.53;5082148;28;665;-76
2020/12/06 10:31:44;;;;;;;;;;;;;;;21.35;29.08;98375.91;5082119;28;1468;-75
2020/12/06 10:34:10;;;;;;;;;;;;;;;21.95;28.89;98379.53;5081432;28;1547;-75
2020/12/06 10:36:35;;;;;;;;;;;;;;;22.30;28.06;98373.06;5062086;28;914;-76
2020/12/06 10:39:01;;;;;;;;;;;;;;;22.48;27.63;98383.19;5061880;28;639;-75
2020/12/06 10:41:26;;;;;;;;;;;;;;;22.50;27.59;98370.16;5062148;28;1902;-76
2020/12/06 10:43:51;;;;;;;;;;;;;;;21.88;28.08;98374.81;5073544;28;1539;-76
2020/12/06 10:46:17;;;;;;;;;;;;;;;21.54;29.20;98366.63;5081338;28;1516;-77
2020/12/06 10:48:42;;;;;;;;;;;;;;;21.30;29.52;98363.88;5081326;28;971;-76
2020/12/06 10:51:08;;;;;;;;;;;;;;;21.65;28.72;98358.69;5081401;28;954;-76
2020/12/06 10:53:33;;;;;;;;;;;;;;;21.51;29.28;98359.81;5081090;28;1501;-76
2020/12/06 10:55:59;;;;;;;;;;;;;;;21.28;29.39;98357.81;5081895;28;1536;-76
2020/12/06 10:58:24;;;;;;;;;;;;;;;21.60;28.93;98359.22;5073441;28;1477;-76
2020/12/06 11:00:50;;;;;;;;;;;;;;;22.01;28.56;98343.75;5081646;28;1913;-76
2020/12/06 11:03:16;;;;;;;;;;;;;;;22.42;27.77;98348.09;5081148;28;912;-76
2020/12/06 11:05:41;;;;;;;;;;;;;;;22.77;27.02;98344.38;5082065;28;1098;-76
2020/12/06 11:08:07;;;;;;;;;;;;;;;21.99;28.04;98337.75;5081115;28;1589;-76
2020/12/06 11:10:32;;;;;;;;;;;;;;;21.67;28.54;98344.91;5081588;28;649;-76
2020/12/06 11:12:57;;;;;;;;;;;;;;;21.63;28.89;98330.03;5081316;28;642;-76
2020/12/06 11:15:26;;;;;;;;;;;;;;;21.85;28.75;98328.31;5081309;28;986;-76
2020/12/06 11:17:51;;;;;;;;;;;;;;;22.27;27.89;98334.25;5080727;28;1547;-76
2020/12/06 11:20:17;;;;;;;;;;;;;;;22.47;27.31;98337.00;5080887;28;1472;-76
2020/12/06 11:22:42;;;;;;;;;;;;;;;22.65;27.34;98328.06;5081428;28;1902;-75
2020/12/06 11:25:08;;;;;;;;;;;;;;;21.92;28.26;98329.41;5081058;28;606;-76
2020/12/06 11:27:33;;;;;;;;;;;;;;;21.07;29.21;98333.56;5081328;28;893;-75
2020/12/06 11:30:03;;;;;;;;;;;;;;;21.63;28.70;98327.19;5080260;28;1484;-76
2020/12/06 11:32:28;;;;;;;;;;;;;;;21.41;28.98;98323.25;5080979;28;952;-76
2020/12/06 11:34:54;;;;;;;;;;;;;;;21.71;28.81;98320.16;5080861;28;962;-76
2020/12/06 11:37:19;;;;;;;;;;;;;;;22.30;27.87;98315.59;5081179;28;630;-76
2020/12/06 11:39:44;;;;;;;;;;;;;;;22.74;27.15;98322.56;5080874;28;642;-76
2020/12/06 11:42:10;;;;;;;;;;;;;;;22.72;27.08;98325.03;5080716;28;1959;-76
2020/12/06 11:44:35;;;;;;;;;;;;;;;22.23;27.46;98316.56;5080545;28;953;-75
2020/12/06 11:47:01;;;;;;;;;;;;;;;21.48;28.73;98320.25;5080721;28;1044;-76
2020/12/06 11:49:26;;;;;;;;;;;;;;;21.54;28.59;98321.31;5080614;28;1004;-76
2020/12/06 11:51:55;;;;;;;;;;;;;;;21.41;29.05;98332.53;5081001;28;1606;-75
2020/12/06 11:54:20;;;;;;;;;;;;;;;22.16;27.70;98330.88;5080204;28;1523;-75
2020/12/06 11:56:49;;;;;;;;;;;;;;;22.33;27.74;98338.19;5080392;28;718;-76
2020/12/06 11:59:17;;;;;;;;;;;;;;;22.61;27.09;98330.19;5080548;28;948;-76
2020/12/06 12:01:43;;;;;;;;;;;;;;;22.59;27.20;98324.97;5080067;28;1959;-75
2020/12/06 12:04:09;;;;;;;;;;;;;;;21.79;28.26;98320.78;5063166;28;910;-76
2020/12/06 12:06:34;;;;;;;;;;;;;;;21.33;28.66;98323.38;5080962;28;679;-76
2020/12/06 12:08:59;;;;;;;;;;;;;;;21.40;28.93;98322.44;5080507;28;666;-76
2020/12/06 12:11:25;;;;;;;;;;;;;;;21.37;29.43;98325.34;5080812;28;611;-75
2020/12/06 12:13:50;;;;;;;;;;;;;;;22.03;27.91;98321.47;5079700;28;1512;-76
2020/12/06 12:16:16;;;;;;;;;;;;;;;22.45;27.68;98321.69;5080369;28;873;-76
2020/12/06 12:18:41;;;;;;;;;;;;;;;22.52;27.26;98315.84;5080397;28;1085;-76
2020/12/06 12:21:13;;;;;;;;;;;;;;;22.25;27.43;98322.56;5080742;28;1910;-76
2020/12/06 12:23:38;;;;;;;;;;;;;;;21.90;28.15;98323.38;5079788;28;1511;-76
2020/12/06 12:26:04;;;;;;;;;;;;;;;21.12;29.39;98329.41;5080780;28;648;-76
2020/12/06 12:28:29;;;;;;;;;;;;;;;21.81;28.92;98329.63;5079764;28;1030;-75
2020/12/06 12:30:55;;;;;;;;;;;;;;;22.34;27.80;98317.09;5080462;28;841;-77
2020/12/06 12:33:20;;;;;;;;;;;;;;;22.54;27.42;98319.03;5079713;28;1520;-76
2020/12/06 12:35:46;;;;;;;;;;;;;;;22.51;26.79;98325.59;5080506;28;1508;-76
2020/12/06 12:38:11;;;;;;;;;;;;;;;21.63;28.26;98332.88;5080258;28;729;-76
2020/12/06 12:40:37;;;;;;;;;;;;;;;21.44;28.63;98339.34;5080568;28;1883;-76
2020/12/06 12:43:02;;;;;;;;;;;;;;;21.40;28.46;98332.94;5079875;28;830;-76
2020/12/06 12:45:28;;;;;;;;;;;;;;;22.09;28.27;98333.88;5079651;28;1524;-75
2020/12/06 12:47:55;;;;;;;;;;;;;;;22.28;27.56;98333.03;5080303;28;976;-76
2020/12/06 12:50:23;;;;;;;;;;;;;;;22.35;27.51;98332.84;5080277;28;670;-76
2020/12/06 12:52:49;;;;;;;;;;;;;;;22.66;27.19;98326.81;5080393;28;661;-76
2020/12/06 12:55:16;;;;;;;;;;;;;;;22.08;27.63;98327.41;5079848;28;1586;-76